createdAt,value
2017-03-13T00:00:04.346Z,28.5
2017-03-13T00:01:04.509Z,28.5
2017-03-13T00:02:02.803Z,28.5
2017-03-13T00:03:04.535Z,28.5
2017-03-13T00:04:03.045Z,28.5
2017-03-13T00:05:02.991Z,28.5
2017-03-13T00:06:03.131Z,28.5
2017-03-13T00:07:03.141Z,28.5
2017-03-13T00:08:03.062Z,28.5
2017-03-13T00:09:03.248Z,28.5
2017-03-13T00:10:04.763Z,28.5
2017-03-13T00:11:03.212Z,28.5
2017-03-13T00:12:04.910Z,28.5
2017-03-13T00:13:04.823Z,28.5
2017-03-13T00:14:04.877Z,28.5
2017-03-13T00:15:04.945Z,28.5
2017-03-13T00:16:03.586Z,28.5
2017-03-13T00:17:03.613Z,28.5
2017-03-13T00:18:03.665Z,28.5
2017-03-13T00:19:05.218Z,28.5
2017-03-13T00:20:05.201Z,28.5
2017-03-13T00:21:05.305Z,28.5
2017-03-13T00:22:04.028Z,28.5
2017-03-13T00:23:05.522Z,28.5
2017-03-13T00:24:03.844Z,28.5
2017-03-13T00:25:05.633Z,28.4
2017-03-13T00:26:04.091Z,28.5
2017-03-13T00:27:04.133Z,28.5
2017-03-13T00:28:04.342Z,28.5
2017-03-13T00:29:05.806Z,28.5
2017-03-13T00:30:04.145Z,28.5
2017-03-13T00:31:04.342Z,28.5
2017-03-13T00:32:04.224Z,28.5
2017-03-13T00:33:04.482Z,28.5
2017-03-13T00:34:06.117Z,28.5
2017-03-13T00:35:04.452Z,28.4
2017-03-13T00:36:06.202Z,28.5
2017-03-13T00:37:06.311Z,28.5
2017-03-13T00:38:04.800Z,28.4
2017-03-13T00:39:06.402Z,28.5
2017-03-13T00:40:06.611Z,28.5
2017-03-13T00:41:06.519Z,28.4
2017-03-13T00:42:06.624Z,28.5
2017-03-13T00:43:04.998Z,28.5
2017-03-13T00:44:05.210Z,28.5
2017-03-13T00:45:06.715Z,28.5
2017-03-13T00:46:07.002Z,28.5
2017-03-13T00:47:05.228Z,28.5
2017-03-13T00:48:05.444Z,28.4
2017-03-13T00:49:05.341Z,28.5
2017-03-13T00:50:07.078Z,28.5
2017-03-13T00:51:05.429Z,28.5
2017-03-13T00:52:05.577Z,28.5
2017-03-13T00:53:07.167Z,28.5
2017-03-13T00:54:05.467Z,28.5
2017-03-13T00:55:05.548Z,28.5
2017-03-13T00:56:05.791Z,28.4
2017-03-13T00:57:07.303Z,28.5
2017-03-13T00:58:07.622Z,28.5
2017-03-13T00:59:05.973Z,28.4
2017-03-13T01:00:07.477Z,28.5
2017-03-13T01:01:05.935Z,28.4
2017-03-13T01:02:07.695Z,28.5
2017-03-13T01:03:06.163Z,28.5
2017-03-13T01:04:06.348Z,28.4
2017-03-13T01:05:06.092Z,28.5
2017-03-13T01:06:07.867Z,28.4
2017-03-13T01:07:06.279Z,28.4
2017-03-13T01:08:07.802Z,28.4
2017-03-13T01:09:07.877Z,28.4
2017-03-13T01:10:08.040Z,28.4
2017-03-13T01:11:07.974Z,28.4
2017-03-13T01:12:06.496Z,28.4
2017-03-13T01:13:06.480Z,28.4
2017-03-13T01:14:08.222Z,28.4
2017-03-13T01:15:08.326Z,28.4
2017-03-13T01:16:07.034Z,28.4
2017-03-13T01:17:08.310Z,28.4
2017-03-13T01:18:06.930Z,28.4
2017-03-13T01:19:06.793Z,28.4
2017-03-13T01:20:08.453Z,28.4
2017-03-13T01:21:06.999Z,28.4
2017-03-13T01:22:08.726Z,28.4
2017-03-13T01:23:07.651Z,28.4
2017-03-13T01:24:08.581Z,28.4
2017-03-13T01:25:08.740Z,28.4
2017-03-13T01:26:08.869Z,28.4
2017-03-13T01:27:07.330Z,28.4
2017-03-13T01:28:09.227Z,28.4
2017-03-13T01:29:07.432Z,28.4
2017-03-13T01:30:09.018Z,28.4
2017-03-13T01:31:07.501Z,28.4
2017-03-13T01:32:07.649Z,28.4
2017-03-13T01:33:09.214Z,28.4
2017-03-13T01:34:09.929Z,28.4
2017-03-13T01:35:09.404Z,28.4
2017-03-13T01:36:07.926Z,28.4
2017-03-13T01:37:07.980Z,28.4
2017-03-13T01:38:07.990Z,28.4
2017-03-13T01:39:09.600Z,28.4
2017-03-13T01:40:09.791Z,28.4
2017-03-13T01:41:09.553Z,28.4
2017-03-13T01:42:08.046Z,28.4
2017-03-13T01:43:08.098Z,28.4
2017-03-13T01:44:09.769Z,28.4
2017-03-13T01:45:08.337Z,28.4
2017-03-13T01:46:09.978Z,28.4
2017-03-13T01:47:08.380Z,28.4
2017-03-13T01:48:08.317Z,28.4
2017-03-13T01:49:09.951Z,28.4
2017-03-13T01:50:10.085Z,28.4
2017-03-13T01:51:10.091Z,28.4
2017-03-13T01:52:08.835Z,28.4
2017-03-13T01:53:08.617Z,28.4
2017-03-13T01:54:10.364Z,28.4
2017-03-13T01:55:10.366Z,28.4
2017-03-13T01:56:08.862Z,28.4
2017-03-13T01:57:10.549Z,28.4
2017-03-13T01:58:09.199Z,28.4
2017-03-13T01:59:10.618Z,28.4
2017-03-13T02:00:11.362Z,28.4
2017-03-13T02:01:10.871Z,28.4
2017-03-13T02:02:09.345Z,28.4
2017-03-13T02:03:10.801Z,28.4
2017-03-13T02:04:09.444Z,28.4
2017-03-13T02:05:09.368Z,28.4
2017-03-13T02:06:09.464Z,28.4
2017-03-13T02:07:11.125Z,28.4
2017-03-13T02:08:11.119Z,28.4
2017-03-13T02:09:11.308Z,28.4
2017-03-13T02:10:09.833Z,28.4
2017-03-13T02:11:09.791Z,28.4
2017-03-13T02:12:11.297Z,28.4
2017-03-13T02:13:09.897Z,28.4
2017-03-13T02:14:09.998Z,28.4
2017-03-13T02:15:11.472Z,28.4
2017-03-13T02:16:10.211Z,28.4
2017-03-13T02:17:09.980Z,28.4
2017-03-13T02:23:04.615Z,28.2
2017-03-13T02:24:05.959Z,28.3
2017-03-13T02:25:04.332Z,28.3
2017-03-13T02:26:05.977Z,28.3
2017-03-13T02:27:04.583Z,28.3
2017-03-13T02:28:06.086Z,28.3
2017-03-13T02:29:06.424Z,28.3
2017-03-13T02:30:04.668Z,28.3
2017-03-13T02:31:04.738Z,28.3
2017-03-13T02:32:06.267Z,28.3
2017-03-13T02:33:04.809Z,28.3
2017-03-13T02:34:06.548Z,28.3
2017-03-13T02:35:05.362Z,28.3
2017-03-13T02:36:05.079Z,28.3
2017-03-13T02:37:05.083Z,28.3
2017-03-13T02:38:05.167Z,28.3
2017-03-13T02:39:06.756Z,28.3
2017-03-13T02:40:05.192Z,28.3
2017-03-13T02:41:06.951Z,28.4
2017-03-13T02:42:06.823Z,28.4
2017-03-13T02:43:05.351Z,28.4
2017-03-13T02:44:05.467Z,28.3
2017-03-13T02:45:05.460Z,28.4
2017-03-13T02:46:07.213Z,28.4
2017-03-13T02:47:07.408Z,28.4
2017-03-13T02:48:05.774Z,28.4
2017-03-13T02:49:05.766Z,28.4
2017-03-13T02:50:05.732Z,28.4
2017-03-13T02:51:07.475Z,28.4
2017-03-13T02:52:05.827Z,28.4
2017-03-13T02:53:07.621Z,28.4
2017-03-13T02:54:06.028Z,28.4
2017-03-13T02:55:06.105Z,28.4
2017-03-13T02:56:07.692Z,28.4
2017-03-13T02:57:06.076Z,28.4
2017-03-13T02:58:07.890Z,28.4
2017-03-13T02:59:07.978Z,28.3
2017-03-13T03:00:07.939Z,28.4
2017-03-13T03:01:07.900Z,28.3
2017-03-13T03:02:07.008Z,28.3
2017-03-13T03:03:07.992Z,28.4
2017-03-13T03:04:06.513Z,28.4
2017-03-13T03:05:08.412Z,28.4
2017-03-13T03:06:08.800Z,28.3
2017-03-13T03:07:06.769Z,28.3
2017-03-13T03:08:08.272Z,28.3
2017-03-13T03:09:08.234Z,28.4
2017-03-13T03:10:08.413Z,28.3
2017-03-13T03:11:07.004Z,28.3
2017-03-13T03:12:08.583Z,28.3
2017-03-13T03:13:08.612Z,28.3
2017-03-13T03:14:09.309Z,28.4
2017-03-13T03:15:06.996Z,28.3
2017-03-13T03:16:08.784Z,28.4
2017-03-13T03:17:08.966Z,28.3
2017-03-13T03:18:07.880Z,28.3
2017-03-13T03:19:07.858Z,28.3
2017-03-13T03:20:07.356Z,28.3
2017-03-13T03:21:07.324Z,28.3
2017-03-13T03:22:07.350Z,28.3
2017-03-13T03:23:09.165Z,28.3
2017-03-13T03:24:09.795Z,28.3
2017-03-13T03:25:07.659Z,28.3
2017-03-13T03:26:09.190Z,28.3
2017-03-13T03:27:07.627Z,28.3
2017-03-13T03:28:07.912Z,28.3
2017-03-13T03:29:07.905Z,28.3
2017-03-13T03:30:09.157Z,28.3
2017-03-13T03:31:10.322Z,28.3
2017-03-13T03:32:07.954Z,28.3
2017-03-13T03:33:08.065Z,28.3
2017-03-13T03:34:08.139Z,28.3
2017-03-13T03:35:10.639Z,28.3
2017-03-13T03:36:08.191Z,28.3
2017-03-13T03:37:10.045Z,28.3
2017-03-13T03:38:10.019Z,28.3
2017-03-13T03:39:10.027Z,28.3
2017-03-13T03:40:08.818Z,28.3
2017-03-13T03:41:10.234Z,28.3
2017-03-13T03:42:08.734Z,28.3
2017-03-13T03:43:10.220Z,28.3
2017-03-13T03:44:09.308Z,28.3
2017-03-13T03:45:08.730Z,28.3
2017-03-13T03:46:09.118Z,28.3
2017-03-13T03:47:10.417Z,28.3
2017-03-13T03:48:10.448Z,28.3
2017-03-13T03:49:09.509Z,28.3
2017-03-13T03:50:10.686Z,28.3
2017-03-13T03:51:10.777Z,28.3
2017-03-13T03:52:10.953Z,28.3
2017-03-13T03:53:09.314Z,28.3
2017-03-13T03:54:10.972Z,28.3
2017-03-13T03:55:10.423Z,28.3
2017-03-13T03:56:09.578Z,28.3
2017-03-13T03:57:11.122Z,28.3
2017-03-13T03:58:09.685Z,28.3
2017-03-13T03:59:11.225Z,28.3
2017-03-13T04:00:09.584Z,28.3
2017-03-13T04:01:11.877Z,28.3
2017-03-13T04:02:11.228Z,28.3
2017-03-13T04:03:09.752Z,28.3
2017-03-13T04:04:10.056Z,28.3
2017-03-13T04:05:12.458Z,28.3
2017-03-13T04:06:11.283Z,28.3
2017-03-13T04:07:09.686Z,28.3
2017-03-13T04:08:09.935Z,28.3
2017-03-13T04:09:09.827Z,28.3
2017-03-13T04:10:09.999Z,28.3
2017-03-13T04:11:11.541Z,28.3
2017-03-13T04:12:10.655Z,28.3
2017-03-13T04:13:10.083Z,28.3
2017-03-13T04:14:10.218Z,28.3
2017-03-13T04:15:10.317Z,28.3
2017-03-13T04:16:10.607Z,28.3
2017-03-13T04:17:10.363Z,28.3
2017-03-13T04:18:11.857Z,28.3
2017-03-13T04:19:10.350Z,28.3
2017-03-13T04:20:10.362Z,28.3
2017-03-13T04:21:12.028Z,28.3
2017-03-13T04:22:12.278Z,28.3
2017-03-13T04:23:10.651Z,28.3
2017-03-13T04:24:10.468Z,28.3
2017-03-13T04:25:11.842Z,28.3
2017-03-13T04:26:12.156Z,28.3
2017-03-13T04:27:12.280Z,28.3
2017-03-13T04:28:10.908Z,28.3
2017-03-13T04:29:10.622Z,28.3
2017-03-13T04:30:12.334Z,28.3
2017-03-13T04:31:10.799Z,28.3
2017-03-13T04:32:12.423Z,28.3
2017-03-13T04:33:10.837Z,28.3
2017-03-13T04:34:11.064Z,28.3
2017-03-13T04:35:12.527Z,28.3
2017-03-13T04:36:11.081Z,28.3
2017-03-13T04:37:11.155Z,28.3
2017-03-13T04:38:11.117Z,28.3
2017-03-13T04:39:12.697Z,28.3
2017-03-13T04:40:12.933Z,28.3
2017-03-13T04:41:11.312Z,28.3
2017-03-13T04:42:12.856Z,28.3
2017-03-13T04:43:11.252Z,28.3
2017-03-13T04:44:12.870Z,28.3
2017-03-13T04:45:11.419Z,28.3
2017-03-13T04:46:11.534Z,28.3
2017-03-13T04:47:13.123Z,28.3
2017-03-13T04:48:11.601Z,28.3
2017-03-13T04:49:13.260Z,28.3
2017-03-13T04:50:13.228Z,28.3
2017-03-13T04:51:11.717Z,28.3
2017-03-13T04:52:14.063Z,28.3
2017-03-13T04:53:13.277Z,28.3
2017-03-13T04:54:13.379Z,28.3
2017-03-13T04:55:11.924Z,28.3
2017-03-13T04:56:13.137Z,28.4
2017-03-13T04:57:13.620Z,28.4
2017-03-13T04:58:14.962Z,28.4
2017-03-13T04:59:11.997Z,28.4
2017-03-13T05:00:13.801Z,28.4
2017-03-13T05:01:13.739Z,28.4
2017-03-13T05:02:13.897Z,28.4
2017-03-13T05:03:12.268Z,28.4
2017-03-13T05:04:14.153Z,28.4
2017-03-13T05:05:13.990Z,28.4
2017-03-13T05:06:12.332Z,28.4
2017-03-13T05:07:12.314Z,28.4
2017-03-13T05:08:14.073Z,28.4
2017-03-13T05:09:12.625Z,28.4
2017-03-13T05:10:14.442Z,28.4
2017-03-13T05:11:14.338Z,28.4
2017-03-13T05:12:12.621Z,28.3
2017-03-13T05:13:12.710Z,28.4
2017-03-13T05:14:12.709Z,28.4
2017-03-13T05:15:14.471Z,28.4
2017-03-13T05:16:14.562Z,28.4
2017-03-13T05:17:12.888Z,28.4
2017-03-13T05:18:14.603Z,28.4
2017-03-13T05:19:14.587Z,28.4
2017-03-13T05:20:14.713Z,28.4
2017-03-13T05:21:13.073Z,28.4
2017-03-13T05:22:14.902Z,28.3
2017-03-13T05:23:14.888Z,28.3
2017-03-13T05:24:13.204Z,28.3
2017-03-13T05:25:13.197Z,28.3
2017-03-13T05:26:13.252Z,28.3
2017-03-13T05:27:15.151Z,28.3
2017-03-13T05:28:13.754Z,28.3
2017-03-13T05:29:13.462Z,28.3
2017-03-13T05:30:15.154Z,28.3
2017-03-13T05:31:15.164Z,28.3
2017-03-13T05:32:13.713Z,28.3
2017-03-13T05:33:15.439Z,28.3
2017-03-13T05:34:15.607Z,28.3
2017-03-13T05:35:13.793Z,28.3
2017-03-13T05:36:15.360Z,28.3
2017-03-13T05:37:15.599Z,28.3
2017-03-13T05:38:13.989Z,28.3
2017-03-13T05:39:13.868Z,28.3
2017-03-13T05:40:14.158Z,28.3
2017-03-13T05:41:15.563Z,28.3
2017-03-13T05:42:14.158Z,28.3
2017-03-13T05:43:15.628Z,28.3
2017-03-13T05:44:15.820Z,28.3
2017-03-13T05:45:15.738Z,27.6
2017-03-13T05:46:16.001Z,26.6
2017-03-13T05:47:14.407Z,26
2017-03-13T05:48:14.287Z,25.4
2017-03-13T05:49:14.429Z,24.9
2017-03-13T05:50:14.381Z,24.5
2017-03-13T05:51:14.407Z,24.1
2017-03-13T05:52:16.100Z,23.8
2017-03-13T05:53:16.163Z,23.5
2017-03-13T05:54:16.131Z,23.2
2017-03-13T05:55:15.217Z,23
2017-03-13T05:56:14.611Z,22.8
2017-03-13T05:57:16.095Z,22.6
2017-03-13T05:58:14.577Z,22.4
2017-03-13T05:59:14.722Z,22.3
2017-03-13T06:00:16.405Z,22.2
2017-03-13T06:01:14.876Z,22.2
2017-03-13T06:02:16.499Z,22.1
2017-03-13T06:03:14.767Z,22.1
2017-03-13T06:04:15.001Z,22.1
2017-03-13T06:05:15.064Z,22.1
2017-03-13T06:06:14.952Z,22.1
2017-03-13T06:07:15.609Z,22
2017-03-13T06:08:16.720Z,21.9
2017-03-13T06:09:15.955Z,21.9
2017-03-13T06:10:16.947Z,21.9
2017-03-13T06:11:15.232Z,22
2017-03-13T06:12:16.850Z,22.3
2017-03-13T06:13:15.417Z,22.7
2017-03-13T06:14:15.361Z,23.1
2017-03-13T06:15:15.348Z,23.5
2017-03-13T06:16:15.373Z,23.8
2017-03-13T06:17:17.052Z,24.2
2017-03-13T06:18:17.050Z,24.5
2017-03-13T06:19:17.162Z,24.8
2017-03-13T06:20:15.656Z,25
2017-03-13T06:21:15.672Z,25.3
2017-03-13T06:22:17.255Z,25.5
2017-03-13T06:23:17.453Z,25.7
2017-03-13T06:24:17.468Z,25.8
2017-03-13T06:25:15.784Z,26
2017-03-13T06:26:17.574Z,26.1
2017-03-13T06:27:17.624Z,26.3
2017-03-13T06:28:17.556Z,26.4
2017-03-13T06:29:17.657Z,26.5
2017-03-13T06:30:16.079Z,26.7
2017-03-13T06:31:17.657Z,26.8
2017-03-13T06:32:17.809Z,26.8
2017-03-13T06:33:17.833Z,26.9
2017-03-13T06:34:16.288Z,27.1
2017-03-13T06:35:16.174Z,27.2
2017-03-13T06:36:19.265Z,27.3
2017-03-13T06:37:17.896Z,27.4
2017-03-13T06:38:18.092Z,27.4
2017-03-13T06:39:18.066Z,27.5
2017-03-13T06:40:18.018Z,27.6
2017-03-13T06:41:18.188Z,27.7
2017-03-13T06:42:16.725Z,27.7
2017-03-13T06:43:17.407Z,27.8
2017-03-13T06:44:16.742Z,27.9
2017-03-13T06:45:16.958Z,27.9
2017-03-13T06:46:18.522Z,28
2017-03-13T06:47:17.026Z,28
2017-03-13T06:48:18.564Z,28.1
2017-03-13T06:49:45.902Z,28.1
2017-03-13T06:50:47.595Z,28.2
2017-03-13T06:51:46.802Z,28.3
2017-03-13T06:52:47.520Z,28.4
2017-03-13T06:53:47.671Z,28.4
2017-03-13T06:54:47.674Z,28.5
2017-03-13T06:55:46.214Z,28.5
2017-03-13T06:56:47.859Z,28.6
2017-03-13T06:57:46.307Z,28.6
2017-03-13T06:58:47.956Z,28.6
2017-03-13T06:59:46.436Z,28.7
2017-03-13T07:00:46.504Z,28.8
2017-03-13T07:01:46.877Z,28.8
2017-03-13T07:02:48.059Z,28.9
2017-03-13T07:03:48.245Z,28.9
2017-03-13T07:04:48.251Z,29
2017-03-13T07:05:48.179Z,29
2017-03-13T07:06:46.711Z,29
2017-03-13T07:07:46.979Z,29.1
2017-03-13T07:08:48.289Z,29.2
2017-03-13T07:09:48.465Z,29.3
2017-03-13T07:10:48.959Z,29.4
2017-03-13T07:11:46.842Z,29.5
2017-03-13T07:12:48.530Z,29.6
2017-03-13T07:13:48.735Z,29.7
2017-03-13T07:14:49.190Z,29.7
2017-03-13T07:15:47.176Z,29.8
2017-03-13T07:16:49.412Z,29.8
2017-03-13T07:17:48.841Z,29.9
2017-03-13T07:18:47.343Z,30
2017-03-13T07:19:47.448Z,30
2017-03-13T07:20:47.275Z,30
2017-03-13T07:21:48.974Z,30
2017-03-13T07:22:49.033Z,30.1
2017-03-13T07:23:49.139Z,30.1
2017-03-13T07:24:47.638Z,30.1
2017-03-13T07:25:49.312Z,30.1
2017-03-13T07:26:49.196Z,30.1
2017-03-13T07:27:49.289Z,30
2017-03-13T07:28:48.364Z,30
2017-03-13T07:29:48.563Z,30
2017-03-13T07:30:48.022Z,29.9
2017-03-13T07:31:49.881Z,29.9
2017-03-13T07:32:49.788Z,29.9
2017-03-13T07:33:48.301Z,30
2017-03-13T07:34:49.759Z,30
2017-03-13T07:35:49.798Z,29.9
2017-03-13T07:36:48.570Z,29.8
2017-03-13T07:37:48.777Z,29.7
2017-03-13T07:38:49.881Z,29.6
2017-03-13T07:39:48.268Z,29.5
2017-03-13T07:40:50.012Z,29.4
2017-03-13T07:41:49.113Z,29.4
2017-03-13T07:42:48.417Z,29.3
2017-03-13T07:43:48.778Z,29.3
2017-03-13T07:44:50.785Z,29.3
2017-03-13T07:45:48.556Z,29.3
2017-03-13T07:46:48.591Z,29.3
2017-03-13T07:47:50.213Z,29.3
2017-03-13T07:48:49.379Z,29.3
2017-03-13T07:49:48.911Z,29.3
2017-03-13T07:50:50.338Z,29.3
2017-03-13T07:51:48.830Z,29.2
2017-03-13T07:52:48.758Z,29.1
2017-03-13T07:53:50.562Z,29.1
2017-03-13T07:54:51.158Z,29.1
2017-03-13T07:55:50.869Z,29.1
2017-03-13T07:56:50.662Z,29.1
2017-03-13T07:57:49.810Z,29.1
2017-03-13T07:58:49.117Z,29.1
2017-03-13T07:59:49.280Z,29.1
2017-03-13T08:00:50.956Z,29.1
2017-03-13T08:01:49.447Z,29.1
2017-03-13T08:02:49.428Z,29
2017-03-13T08:03:51.685Z,29
2017-03-13T08:04:50.896Z,29
2017-03-13T08:05:51.137Z,29
2017-03-13T08:06:51.151Z,29.1
2017-03-13T08:07:49.868Z,29.2
2017-03-13T08:08:51.522Z,29.4
2017-03-13T08:09:51.102Z,29.5
2017-03-13T08:10:51.519Z,29.6
2017-03-13T08:11:49.856Z,29.6
2017-03-13T08:12:51.514Z,29.6
2017-03-13T08:13:50.781Z,29.7
2017-03-13T08:14:50.097Z,29.7
2017-03-13T08:15:53.089Z,29.7
2017-03-13T08:16:51.673Z,29.7
2017-03-13T08:17:50.602Z,29.6
2017-03-13T08:18:51.877Z,29.5
2017-03-13T08:19:50.472Z,29.4
2017-03-13T08:20:50.431Z,29.4
2017-03-13T08:21:50.576Z,29.3
2017-03-13T08:22:50.504Z,29.2
2017-03-13T08:23:52.163Z,29.1
2017-03-13T08:24:52.204Z,28.9
2017-03-13T08:25:52.389Z,28.9
2017-03-13T08:26:50.714Z,28.8
2017-03-13T08:27:52.395Z,28.8
2017-03-13T08:28:52.146Z,28.8
2017-03-13T08:29:52.994Z,28.8
2017-03-13T08:31:53.861Z,28.9
2017-03-13T08:32:50.875Z,29
2017-03-13T08:33:52.442Z,29
2017-03-13T08:34:51.492Z,29
2017-03-13T08:35:51.029Z,29.1
2017-03-13T08:36:53.983Z,29.1
2017-03-13T08:37:52.578Z,29.2
2017-03-13T08:38:53.309Z,29.2
2017-03-13T08:39:51.117Z,29.2
2017-03-13T08:40:53.486Z,29.3
2017-03-13T08:41:52.772Z,29.3
2017-03-13T08:42:53.401Z,29.4
2017-03-13T08:43:51.902Z,29.4
2017-03-13T08:44:51.936Z,29.4
2017-03-13T08:45:53.445Z,29.5
2017-03-13T08:46:52.970Z,29.5
2017-03-13T08:47:51.669Z,29.5
2017-03-13T08:48:52.510Z,29.6
2017-03-13T08:49:54.663Z,29.6
2017-03-13T08:50:53.432Z,29.6
2017-03-13T08:51:53.261Z,29.6
2017-03-13T08:52:53.426Z,29.7
2017-03-13T08:53:51.767Z,29.7
2017-03-13T08:54:53.600Z,29.7
2017-03-13T08:55:54.948Z,29.8
2017-03-13T08:56:52.089Z,29.8
2017-03-13T08:57:52.183Z,29.8
2017-03-13T08:58:53.317Z,29.9
2017-03-13T08:59:53.779Z,29.9
2017-03-13T09:00:54.734Z,29.9
2017-03-13T09:01:54.404Z,29.9
2017-03-13T09:02:53.429Z,29.9
2017-03-13T09:03:52.300Z,30
2017-03-13T09:04:54.681Z,30
2017-03-13T09:05:53.951Z,30
2017-03-13T09:06:52.786Z,30
2017-03-13T09:08:03.331Z,30
2017-03-13T09:08:54.214Z,30
2017-03-13T09:09:54.825Z,30.1
2017-03-13T09:10:54.367Z,30.1
2017-03-13T09:11:53.574Z,30.1
2017-03-13T09:12:53.126Z,30.1
2017-03-13T09:13:53.019Z,30.1
2017-03-13T09:15:03.401Z,30.1
2017-03-13T09:15:56.535Z,30.1
2017-03-13T09:16:54.623Z,30.1
2017-03-13T09:17:53.271Z,30.1
2017-03-13T09:18:56.147Z,30.2
2017-03-13T09:19:53.953Z,30.2
2017-03-13T09:20:54.993Z,30.2
2017-03-13T09:21:53.280Z,30.2
2017-03-13T09:22:54.932Z,30.2
2017-03-13T09:23:53.437Z,30.3
2017-03-13T09:24:53.618Z,30.3
2017-03-13T09:25:53.513Z,30.3
2017-03-13T09:26:53.701Z,30.3
2017-03-13T09:27:54.232Z,30.3
2017-03-13T09:28:55.313Z,30.3
2017-03-13T09:29:54.528Z,30.4
2017-03-13T09:30:53.943Z,30.4
2017-03-13T09:31:56.037Z,30.4
2017-03-13T09:32:55.522Z,30.4
2017-03-13T09:33:54.364Z,30.4
2017-03-13T09:34:53.937Z,30.4
2017-03-13T09:35:54.019Z,30.5
2017-03-13T09:36:55.700Z,30.4
2017-03-13T09:37:54.948Z,30.5
2017-03-13T09:38:54.330Z,30.5
2017-03-13T09:39:55.945Z,30.5
2017-03-13T09:40:54.701Z,30.5
2017-03-13T09:41:55.080Z,30.5
2017-03-13T09:42:54.421Z,30.6
2017-03-13T09:43:54.597Z,30.6
2017-03-13T09:44:54.554Z,30.6
2017-03-13T09:45:56.267Z,30.7
2017-03-13T09:46:55.347Z,30.7
2017-03-13T09:47:54.750Z,30.7
2017-03-13T10:11:05.074Z,27.7
2017-03-13T10:12:03.360Z,27.6
2017-03-13T10:13:05.004Z,27.7
2017-03-13T10:14:03.609Z,27.9
2017-03-13T10:15:04.157Z,28.2
2017-03-13T10:26:00.960Z,30.1
2017-03-13T10:26:59.560Z,30.2
2017-03-13T10:27:59.692Z,30.3
2017-03-13T10:28:59.720Z,30.4
2017-03-13T10:29:58.512Z,30.4
2017-03-13T10:30:59.709Z,30.4
2017-03-13T10:31:58.185Z,30.4
2017-03-13T10:32:59.840Z,30.5
2017-03-13T10:33:59.745Z,30.5
2017-03-13T10:35:00.464Z,30.5
2017-03-13T10:35:58.366Z,30.5
2017-03-13T10:37:00.741Z,30.5
2017-03-13T10:37:59.086Z,30.5
2017-03-13T10:39:00.115Z,30.6
2017-03-13T10:40:00.888Z,30.6
2017-03-13T10:40:59.154Z,30.6
2017-03-13T10:41:58.530Z,30.6
2017-03-13T10:43:00.827Z,30.7
2017-03-13T10:43:58.647Z,30.7
2017-03-13T10:45:00.230Z,30.7
2017-03-13T10:46:01.183Z,30.8
2017-03-13T10:47:01.595Z,30.8
2017-03-13T10:48:01.857Z,30.8
2017-03-13T10:49:00.530Z,30.9
2017-03-13T10:50:00.599Z,31
2017-03-13T10:51:01.322Z,31
2017-03-13T10:52:01.242Z,31
2017-03-13T10:53:01.437Z,31
2017-03-13T10:54:04.609Z,31
2017-03-13T10:55:00.856Z,31.1
2017-03-13T10:55:59.186Z,31.1
2017-03-13T10:57:00.805Z,31.1
2017-03-13T10:58:02.225Z,31.1
2017-03-13T10:59:00.627Z,31
2017-03-13T11:00:01.124Z,31
2017-03-13T11:01:00.173Z,31.1
2017-03-13T11:02:01.340Z,31.1
2017-03-13T11:02:59.865Z,31.1
2017-03-13T11:04:01.475Z,31.1
2017-03-13T11:05:00.571Z,31.1
2017-03-13T11:05:59.800Z,31.1
2017-03-13T11:07:01.553Z,31.1
2017-03-13T11:08:00.048Z,31.1
2017-03-13T11:09:00.753Z,31.1
2017-03-13T11:10:01.953Z,31.1
2017-03-13T11:11:01.910Z,31.1
2017-03-13T11:12:00.847Z,31.1
2017-03-13T11:13:04.499Z,31.1
2017-03-13T11:14:03.957Z,31.1
2017-03-13T11:15:02.615Z,31.1
2017-03-13T11:16:01.987Z,31.1
2017-03-13T11:17:00.559Z,31.1
2017-03-13T11:18:02.179Z,31
2017-03-13T11:19:02.723Z,31
2017-03-13T11:20:02.286Z,31
2017-03-13T11:21:02.860Z,31.1
2017-03-13T11:22:03.439Z,31.1
2017-03-13T11:23:02.374Z,31.1
2017-03-13T11:24:02.392Z,31.1
2017-03-13T11:25:03.008Z,31.1
2017-03-13T11:26:00.907Z,31.1
2017-03-13T11:27:01.061Z,31.1
2017-03-13T11:28:02.720Z,31.1
2017-03-13T11:29:02.634Z,31.1
2017-03-13T11:30:02.718Z,31
2017-03-13T11:31:03.343Z,31
2017-03-13T11:32:02.967Z,31
2017-03-13T11:33:02.968Z,31
2017-03-13T11:34:01.482Z,30.9
2017-03-13T11:35:02.362Z,30.9
2017-03-13T11:36:03.424Z,30.9
2017-03-13T11:37:02.810Z,31
2017-03-13T11:38:01.302Z,30.9
2017-03-13T11:39:04.163Z,31
2017-03-13T11:40:01.969Z,31
2017-03-13T11:41:03.699Z,31
2017-03-13T11:42:01.531Z,31
2017-03-13T11:43:01.579Z,31
2017-03-13T11:44:01.776Z,31
2017-03-13T11:45:02.539Z,31
2017-03-13T11:46:03.361Z,31
2017-03-13T11:47:03.202Z,31
2017-03-13T11:48:03.588Z,31
2017-03-13T11:49:01.898Z,31
2017-03-13T11:50:02.059Z,31
2017-03-13T11:51:04.301Z,31
2017-03-13T11:52:02.033Z,31
2017-03-13T11:53:02.836Z,31
2017-03-13T11:54:02.110Z,30.9
2017-03-13T11:55:04.407Z,30.9
2017-03-13T11:56:03.953Z,30.9
2017-03-13T11:57:03.628Z,30.9
2017-03-13T11:58:02.396Z,31
2017-03-13T11:59:03.886Z,31
2017-03-13T12:00:02.526Z,31
2017-03-13T12:01:03.102Z,31
2017-03-13T12:02:03.142Z,31
2017-03-13T12:03:02.625Z,31.1
2017-03-13T12:04:02.577Z,31.1
2017-03-13T12:05:02.943Z,31
2017-03-13T12:06:03.744Z,31.1
2017-03-13T12:07:02.613Z,31.1
2017-03-13T12:08:04.295Z,31.1
2017-03-13T12:09:05.020Z,31
2017-03-13T12:10:02.767Z,31.1
2017-03-13T12:11:05.190Z,31
2017-03-13T12:12:02.988Z,31
2017-03-13T12:13:04.538Z,30.9
2017-03-13T12:14:03.594Z,30.7
2017-03-13T12:15:05.647Z,30.5
2017-03-13T12:16:04.704Z,30.4
2017-03-13T12:17:03.170Z,30.4
2017-03-13T12:18:03.071Z,30.3
2017-03-13T12:19:04.340Z,30.2
2017-03-13T12:20:04.776Z,30.2
2017-03-13T12:21:03.128Z,30.2
2017-03-13T12:22:03.216Z,30.1
2017-03-13T12:23:05.437Z,30.1
2017-03-13T12:24:04.017Z,30
2017-03-13T12:25:03.349Z,30
2017-03-13T12:26:03.509Z,30
2017-03-13T12:27:05.858Z,30
2017-03-13T12:28:05.092Z,29.9
2017-03-13T12:29:04.262Z,29.9
2017-03-13T12:30:05.900Z,30
2017-03-13T12:31:05.275Z,30
2017-03-13T12:32:03.826Z,30.1
2017-03-13T12:33:03.674Z,30.1
2017-03-13T12:34:06.681Z,30.2
2017-03-13T12:35:04.512Z,30.2
2017-03-13T12:36:07.207Z,30.2
2017-03-13T12:37:03.866Z,30.2
2017-03-13T12:38:06.012Z,30.3
2017-03-13T12:39:06.167Z,30.3
2017-03-13T12:40:04.052Z,30.4
2017-03-13T12:41:07.377Z,30.4
2017-03-13T12:42:04.664Z,30.4
2017-03-13T12:43:05.483Z,30.3
2017-03-13T12:44:05.018Z,30.2
2017-03-13T12:45:05.201Z,30.2
2017-03-13T12:46:05.032Z,30.3
2017-03-13T12:47:05.660Z,30.3
2017-03-13T12:48:06.684Z,30.3
2017-03-13T12:49:16.660Z,30.3
2017-03-13T12:50:05.303Z,30.3
2017-03-13T12:51:06.230Z,30.3
2017-03-13T12:54:13.016Z,30.3
2017-03-13T12:55:13.187Z,30.3
2017-03-13T12:56:14.888Z,30.2
2017-03-13T12:57:13.718Z,30.2
2017-03-13T12:58:15.612Z,30.2
2017-03-13T12:59:13.384Z,30.3
2017-03-13T13:00:15.753Z,30.3
2017-03-13T13:01:14.955Z,30.3
2017-03-13T13:02:13.432Z,30.3
2017-03-13T13:03:15.120Z,30.4
2017-03-13T13:04:13.598Z,30.4
2017-03-13T13:05:15.300Z,30.4
2017-03-13T13:06:15.300Z,30.3
2017-03-13T13:07:13.688Z,30.4
2017-03-13T13:08:13.907Z,30.4
2017-03-13T13:09:15.409Z,30.4
2017-03-13T13:10:15.472Z,30.3
2017-03-13T13:11:15.817Z,30.4
2017-03-13T13:12:15.601Z,30.3
2017-03-13T13:13:15.188Z,30.4
2017-03-13T13:14:14.068Z,30.5
2017-03-13T13:15:16.058Z,30.5
2017-03-13T13:16:17.828Z,30.4
2017-03-13T13:17:22.109Z,30.4
2017-03-13T13:18:14.501Z,30.4
2017-03-13T13:19:29.935Z,30.3
2017-03-13T13:20:17.978Z,30.3
2017-03-13T13:21:16.052Z,30.3
2017-03-13T13:22:17.582Z,30.3
2017-03-13T13:23:16.579Z,30.3
2017-03-13T13:24:16.100Z,30.3
2017-03-13T13:25:16.196Z,30.2
2017-03-13T13:26:17.838Z,30.2
2017-03-13T13:27:15.347Z,30.3
2017-03-13T13:28:16.403Z,30.2
2017-03-13T13:29:14.774Z,30.3
2017-03-13T13:30:18.782Z,30.3
2017-03-13T13:31:17.153Z,30.4
2017-03-13T13:32:18.723Z,30.4
2017-03-13T13:33:16.874Z,30.4
2017-03-13T13:34:16.569Z,30.4
2017-03-13T13:35:16.837Z,30.4
2017-03-13T13:36:15.285Z,30.4
2017-03-13T13:37:17.377Z,30.5
2017-03-13T13:38:15.189Z,30.5
2017-03-13T13:39:17.663Z,30.4
2017-03-13T13:40:17.613Z,30.4
2017-03-13T13:41:15.469Z,30.4
2017-03-13T13:42:15.378Z,30.4
2017-03-13T13:43:17.094Z,30.4
2017-03-13T13:44:17.125Z,30.5
2017-03-13T13:45:15.612Z,30.4
2017-03-13T13:46:17.273Z,30.4
2017-03-13T13:47:17.457Z,30.4
2017-03-13T13:48:16.583Z,30.5
2017-03-13T13:49:17.531Z,30.6
2017-03-13T13:50:17.634Z,30.7
2017-03-13T13:51:18.268Z,30.8
2017-03-13T13:52:16.034Z,30.8
2017-03-13T13:53:17.611Z,30.8
2017-03-13T13:54:18.329Z,30.8
2017-03-13T13:55:18.878Z,30.9
2017-03-13T13:56:16.331Z,30.9
2017-03-13T13:57:17.423Z,30.9
2017-03-13T13:58:18.009Z,30.8
2017-03-13T13:59:18.060Z,30.7
2017-03-13T14:00:17.954Z,30.8
2017-03-13T14:01:18.214Z,30.8
2017-03-13T14:02:16.545Z,30.9
2017-03-13T14:03:18.013Z,31
2017-03-13T14:04:16.440Z,31.2